createdAt,value
2018-08-18T00:15:30.331Z,316.03
2018-08-18T00:18:13.252Z,217.37
2018-08-18T00:20:56.754Z,104.90
2018-08-18T00:23:35.136Z,91.90
2018-08-18T00:26:19.693Z,80.77
2018-08-18T00:29:04.756Z,92.23
2018-08-18T00:31:49.752Z,68.40
2018-08-18T00:34:30.253Z,83.23
2018-08-18T01:42:41.644Z,249.03
2018-08-18T01:45:21.671Z,174.67
2018-08-18T01:48:04.317Z,222.73
2018-08-18T01:50:44.749Z,245.73
2018-08-18T01:53:28.778Z,250.87
2018-08-18T01:56:08.704Z,351.87
2018-08-18T01:58:47.877Z,200.33
2018-08-18T02:01:27.962Z,345.93
2018-08-18T02:04:08.339Z,211.37
2018-08-18T03:33:02.021Z,641.70
2018-08-18T05:05:17.441Z,799.87
2018-08-18T05:07:57.922Z,742.07
2018-08-18T05:10:42.613Z,830.17
2018-08-18T05:13:23.965Z,806.40
2018-08-18T05:16:08.339Z,870.70
2018-08-18T05:18:49.650Z,437.53
2018-08-18T05:21:31.343Z,779.17
2018-08-18T05:24:26.984Z,810.03
2018-08-18T05:27:25.142Z,767.33
2018-08-18T05:30:07.738Z,807.87
2018-08-18T05:32:47.102Z,746.33
2018-08-18T05:35:30.859Z,649.63
2018-08-18T05:38:12.415Z,761.67
2018-08-18T05:40:52.441Z,537.17
2018-08-18T05:43:34.421Z,613.40
2018-08-18T05:46:14.102Z,298.07
2018-08-18T05:48:56.099Z,541.93
2018-08-18T05:51:39.726Z,536.40
2018-08-18T05:54:35.761Z,387.73
2018-08-18T05:57:17.568Z,890.87
2018-08-18T05:59:57.343Z,372.80
2018-08-18T06:02:39.136Z,411.53
2018-08-18T06:05:21.059Z,373.40
2018-08-18T06:08:02.941Z,203.43
2018-08-18T06:10:45.345Z,169.07
2018-08-18T06:13:27.195Z,623.27
2018-08-18T06:16:17.001Z,388.27
2018-08-18T06:18:58.299Z,645.23
2018-08-18T06:21:40.925Z,385.77
2018-08-18T06:24:22.680Z,221.50
2018-08-18T06:27:02.442Z,439.03
2018-08-18T06:29:42.618Z,131.77
2018-08-18T06:32:25.305Z,379.20
2018-08-18T06:35:04.947Z,495.83
2018-08-18T06:37:51.297Z,183.23
2018-08-18T06:40:30.441Z,329.83
2018-08-18T06:43:15.442Z,145.83
2018-08-18T06:46:00.980Z,153.63
2018-08-18T07:27:36.521Z,999.90
2018-08-18T07:30:21.123Z,999.90
2018-08-18T07:32:59.836Z,999.90
2018-08-18T07:35:42.298Z,999.90
2018-08-18T07:38:21.243Z,894.00
2018-08-18T07:41:02.084Z,237.40
2018-08-18T07:43:47.463Z,92.60
2018-08-18T07:46:28.167Z,366.73
2018-08-18T07:49:10.023Z,473.00
2018-08-18T07:51:53.601Z,595.77
2018-08-18T07:54:34.318Z,564.40
2018-08-18T07:57:17.997Z,234.57
2018-08-18T08:00:04.975Z,999.90
2018-08-18T08:02:45.319Z,999.90
2018-08-18T08:05:28.639Z,760.67
2018-08-18T08:08:14.222Z,845.67
2018-08-18T09:04:20.920Z,999.90
2018-08-18T09:07:03.764Z,999.90
2018-08-18T09:09:48.780Z,999.65
2018-08-18T09:12:33.299Z,975.83
2018-08-18T09:15:12.723Z,448.65
2018-08-18T09:17:53.680Z,419.17
2018-08-18T09:20:53.288Z,507.23
2018-08-18T09:23:41.520Z,853.65
2018-08-18T09:26:29.459Z,978.92
2018-08-18T09:29:18.344Z,999.90
2018-08-18T09:32:00.839Z,999.90
2018-08-18T09:35:01.040Z,999.90
2018-08-18T09:37:49.940Z,999.90
2018-08-18T09:40:27.444Z,999.90
2018-08-18T09:43:13.425Z,999.90
2018-08-18T09:46:02.463Z,999.90
2018-08-18T09:48:43.848Z,747.83
2018-08-18T09:51:25.141Z,577.47
2018-08-18T09:54:13.320Z,191.30
2018-08-18T09:56:54.238Z,153.12
2018-08-18T09:59:34.264Z,743.30
2018-08-18T10:02:16.059Z,999.90
2018-08-18T10:05:00.680Z,999.90
2018-08-18T10:07:41.983Z,999.90
2018-08-18T10:54:51.162Z,95.50
2018-08-18T10:57:43.080Z,36.10
2018-08-18T11:00:25.036Z,20.92
2018-08-18T11:03:05.920Z,32.60
2018-08-18T11:05:49.499Z,19.95
2018-08-18T11:08:30.378Z,15.25
2018-08-18T11:11:16.346Z,45.25
2018-08-18T11:13:55.079Z,30.43
2018-08-18T11:16:38.403Z,33.33
2018-08-18T11:19:18.262Z,77.87
2018-08-18T11:22:06.243Z,96.15
2018-08-18T11:24:47.582Z,140.80
2018-08-18T11:27:28.634Z,54.53
2018-08-18T11:30:06.766Z,164.60
2018-08-18T11:32:46.995Z,237.17
2018-08-18T11:35:26.461Z,149.18
2018-08-18T11:38:19.742Z,312.00
2018-08-18T11:41:04.129Z,307.62
2018-08-18T11:43:54.078Z,323.30
2018-08-18T11:46:35.240Z,411.73
2018-08-18T11:49:13.702Z,507.05
2018-08-18T11:51:54.466Z,491.85
2018-08-18T11:54:31.509Z,429.68
2018-08-18T11:57:14.440Z,677.28
2018-08-18T11:59:56.803Z,743.20
2018-08-18T12:02:34.742Z,715.25
2018-08-18T12:05:14.141Z,679.87
2018-08-18T12:07:55.189Z,768.70
2018-08-18T12:10:34.013Z,724.85
2018-08-18T12:13:14.498Z,752.17
2018-08-18T12:16:05.023Z,751.85
2018-08-18T12:18:51.681Z,717.10
2018-08-18T12:21:36.480Z,769.00
2018-08-18T12:24:16.278Z,663.65
2018-08-18T12:27:16.865Z,678.25
2018-08-18T12:29:56.169Z,668.17
2018-08-18T12:32:41.228Z,701.25
2018-08-18T12:35:36.077Z,689.75
2018-08-18T12:38:18.182Z,707.62
2018-08-18T12:40:57.622Z,629.58
2018-08-18T12:43:40.267Z,668.30
2018-08-18T12:46:30.137Z,603.12
2018-08-18T12:49:12.919Z,717.50
2018-08-18T12:51:52.721Z,725.33
2018-08-18T12:54:34.661Z,770.95
2018-08-18T12:57:19.559Z,732.27
2018-08-18T13:00:08.419Z,716.67
2018-08-18T13:03:00.119Z,691.42
2018-08-18T13:05:38.597Z,640.15
2018-08-18T13:08:19.961Z,598.85
2018-08-18T13:11:03.378Z,611.45
2018-08-18T13:13:44.798Z,580.33
2018-08-18T13:16:30.239Z,586.10
2018-08-18T13:19:12.723Z,547.35
2018-08-18T13:21:56.701Z,499.98
2018-08-18T13:24:38.307Z,406.13
2018-08-18T13:27:24.281Z,388.68
2018-08-18T13:30:11.838Z,424.62
2018-08-18T13:33:00.483Z,457.15
2018-08-18T13:35:41.002Z,407.75
2018-08-18T13:38:36.484Z,444.07
2018-08-18T13:41:16.665Z,448.20
2018-08-18T13:44:02.142Z,451.80
2018-08-18T13:46:55.172Z,500.57
2018-08-18T13:49:36.917Z,478.82
2018-08-18T13:52:21.744Z,476.13
2018-08-18T13:55:02.961Z,528.38
2018-08-18T13:57:46.184Z,469.62
2018-08-18T14:00:26.462Z,494.97
2018-08-18T14:03:06.700Z,411.82
2018-08-18T14:05:48.166Z,428.35
2018-08-18T14:08:26.507Z,445.10
2018-08-18T14:11:09.723Z,378.85
2018-08-18T14:13:47.818Z,343.25
2018-08-18T14:16:29.720Z,304.87
2018-08-18T14:19:08.648Z,324.62
2018-08-18T14:21:48.901Z,317.98
2018-08-18T14:24:40.424Z,333.55
2018-08-18T14:27:26.558Z,346.05
2018-08-18T14:30:04.422Z,333.77
2018-08-18T14:32:47.121Z,330.23
2018-08-18T14:35:29.685Z,295.65
2018-08-18T14:38:10.800Z,354.30
2018-08-18T14:40:52.125Z,306.52
2018-08-18T14:43:36.844Z,334.60
2018-08-18T14:46:20.984Z,346.18
2018-08-18T14:49:01.502Z,366.08
2018-08-18T14:51:40.082Z,343.67
2018-08-18T14:54:25.522Z,338.43
2018-08-18T14:57:07.286Z,414.40
2018-08-18T14:59:48.299Z,371.15
2018-08-18T15:02:26.955Z,386.87
2018-08-18T15:05:07.640Z,491.92
2018-08-18T15:07:55.560Z,530.80
2018-08-18T15:10:46.963Z,458.98
2018-08-18T15:13:26.573Z,468.97
2018-08-18T15:16:12.248Z,530.22
2018-08-18T15:18:54.169Z,498.45
2018-08-18T15:21:36.180Z,394.07
2018-08-18T15:24:16.319Z,139.37
2018-08-18T15:26:54.779Z,142.25
2018-08-18T15:29:33.583Z,58.80
2018-08-18T15:32:12.301Z,298.38
2018-08-18T15:34:51.783Z,139.20
2018-08-18T15:37:31.457Z,76.67
2018-08-18T15:40:13.102Z,58.05
2018-08-18T15:42:52.155Z,82.97
2018-08-18T15:45:33.817Z,205.98
2018-08-18T15:48:14.342Z,285.02
2018-08-18T15:50:53.416Z,358.95
2018-08-18T15:53:50.885Z,449.20
2018-08-18T15:56:33.016Z,462.77
2018-08-18T15:59:18.618Z,457.52
2018-08-18T16:02:01.684Z,476.98
2018-08-18T16:04:46.100Z,186.22
2018-08-18T16:07:24.920Z,332.12
2018-08-18T16:10:08.477Z,688.30
2018-08-18T16:12:48.398Z,682.65
2018-08-18T16:15:30.659Z,679.75
2018-08-18T16:18:10.659Z,429.07
2018-08-18T16:20:55.915Z,603.42
2018-08-18T16:23:36.164Z,412.30
2018-08-18T16:26:17.278Z,299.00
2018-08-18T16:29:07.225Z,99.77
2018-08-18T16:31:45.862Z,196.45
2018-08-18T16:34:24.297Z,249.15
2018-08-18T16:37:02.660Z,136.35
2018-08-18T16:39:46.183Z,105.03
2018-08-18T16:42:29.019Z,109.55
2018-08-18T16:45:13.661Z,163.15
2018-08-18T16:47:58.180Z,471.42
2018-08-18T16:50:37.983Z,139.40
2018-08-18T16:53:24.020Z,42.53
2018-08-18T16:56:03.264Z,137.77
2018-08-18T16:58:44.659Z,51.50
2018-08-18T17:01:23.761Z,32.28
2018-08-18T17:04:00.982Z,264.65
2018-08-18T17:06:39.062Z,104.05
2018-08-18T17:09:25.002Z,44.27
2018-08-18T17:12:16.027Z,50.80
2018-08-18T17:14:53.768Z,118.77
2018-08-18T17:17:33.038Z,81.37
2018-08-18T17:20:12.808Z,105.92
2018-08-18T17:22:52.308Z,48.75
2018-08-18T17:25:38.023Z,73.45
2018-08-18T17:28:21.690Z,264.68
2018-08-18T17:31:00.261Z,97.22
2018-08-18T17:33:40.339Z,474.98
2018-08-18T17:36:20.862Z,516.60
2018-08-18T17:38:59.921Z,705.83
2018-08-18T17:41:38.479Z,312.38
2018-08-18T17:44:17.642Z,522.85
2018-08-18T17:47:01.499Z,419.77
2018-08-18T17:49:53.267Z,539.25
2018-08-18T17:52:37.320Z,659.35
2018-08-18T17:55:22.723Z,317.65
2018-08-18T17:58:03.744Z,347.07
2018-08-18T18:00:42.305Z,216.90
2018-08-18T18:03:21.219Z,63.65
2018-08-18T18:06:03.299Z,643.52
2018-08-18T18:08:41.297Z,681.13
2018-08-18T18:11:20.838Z,977.75
2018-08-18T18:13:59.340Z,999.90
2018-08-18T18:16:37.878Z,999.90
2018-08-18T18:19:19.022Z,999.90
2018-08-18T18:21:58.482Z,999.90
2018-08-18T18:24:47.583Z,999.90
2018-08-18T18:27:26.420Z,999.90
2018-08-18T18:30:04.215Z,999.90
2018-08-18T18:32:42.243Z,999.90
2018-08-18T18:35:21.362Z,999.90
2018-08-18T18:38:02.060Z,999.90
2018-08-18T18:40:47.460Z,999.90
2018-08-18T18:43:27.482Z,999.90
2018-08-18T18:46:11.639Z,999.90
2018-08-18T18:48:53.776Z,999.90
2018-08-18T18:51:35.982Z,999.90
2018-08-18T18:54:19.202Z,999.90
2018-08-18T18:56:58.861Z,999.90
2018-08-18T18:59:40.384Z,999.90
2018-08-18T19:02:20.627Z,999.90
2018-08-18T19:04:59.948Z,992.07
2018-08-18T19:07:41.760Z,963.18
2018-08-18T19:10:20.864Z,851.10
2018-08-18T19:13:04.178Z,755.77
2018-08-18T19:15:44.863Z,603.50
2018-08-18T19:18:25.901Z,664.08
2018-08-18T19:21:07.218Z,712.35
2018-08-18T19:23:48.019Z,823.72
2018-08-18T19:26:28.694Z,998.32
2018-08-18T19:29:10.183Z,976.13
2018-08-18T19:31:50.004Z,999.90
2018-08-18T19:34:31.198Z,999.90
2018-08-18T19:37:15.169Z,999.90
2018-08-18T19:39:55.423Z,999.90
2018-08-18T19:42:36.121Z,999.90
2018-08-18T19:45:14.864Z,748.30
2018-08-18T19:47:56.357Z,460.37
2018-08-18T19:50:37.178Z,326.93
2018-08-18T19:53:15.725Z,329.10
2018-08-18T19:55:53.922Z,305.93
2018-08-18T19:58:36.978Z,229.07
2018-08-18T20:01:18.198Z,197.33
2018-08-18T20:04:00.257Z,254.40
2018-08-18T20:06:43.361Z,372.30
2018-08-18T20:09:31.139Z,587.53
2018-08-18T20:12:11.263Z,781.57
2018-08-18T20:14:52.659Z,891.03
2018-08-18T20:17:33.462Z,965.43
2018-08-18T21:43:56.936Z,777.90
2018-08-18T21:46:36.581Z,832.03
2018-08-18T21:49:17.506Z,999.90
2018-08-18T21:51:58.023Z,999.90
2018-08-18T21:54:39.524Z,999.90
2018-08-18T21:57:20.843Z,999.90
2018-08-18T22:00:06.541Z,999.90
2018-08-18T22:02:53.024Z,999.90
2018-08-18T22:05:37.861Z,999.90
2018-08-18T22:08:19.978Z,999.90
2018-08-18T22:11:02.515Z,986.77
2018-08-18T22:13:54.197Z,902.13
2018-08-18T22:16:35.303Z,912.30
2018-08-18T22:19:16.321Z,955.23
2018-08-18T22:21:57.639Z,931.93
2018-08-18T22:24:37.422Z,990.03
2018-08-18T22:27:20.886Z,999.90
2018-08-18T22:30:00.485Z,999.90
2018-08-18T22:32:42.339Z,999.90
2018-08-18T22:35:24.318Z,988.70
2018-08-18T22:38:03.530Z,999.90
2018-08-18T22:40:44.636Z,999.90
2018-08-18T22:43:28.605Z,999.90
2018-08-18T22:46:07.980Z,954.70
2018-08-18T22:48:49.409Z,999.90
2018-08-18T22:51:29.719Z,999.90
